createdAt,value
2018-09-11T00:00:46.112Z,11.23
2018-09-11T00:03:14.627Z,11.13
2018-09-11T00:05:43.118Z,10.83
2018-09-11T00:08:11.651Z,11.50
2018-09-11T00:10:40.163Z,11.23
2018-09-11T00:13:08.683Z,11.23
2018-09-11T00:15:37.210Z,11.33
2018-09-11T00:18:05.719Z,10.77
2018-09-11T00:20:34.301Z,10.83
2018-09-11T00:23:02.842Z,10.90
2018-09-11T00:25:31.377Z,10.50
2018-09-11T00:27:59.901Z,10.20
2018-09-11T00:30:28.446Z,9.93
2018-09-11T00:32:56.957Z,11.07
2018-09-11T00:35:25.552Z,10.37
2018-09-11T00:37:54.112Z,11.07
2018-09-11T00:40:22.672Z,10.53
2018-09-11T00:42:51.174Z,10.00
2018-09-11T00:45:19.738Z,10.07
2018-09-11T00:47:48.295Z,10.10
2018-09-11T00:50:16.820Z,10.70
2018-09-11T00:52:45.438Z,10.00
2018-09-11T00:55:13.955Z,10.40
2018-09-11T00:57:42.573Z,9.60
2018-09-11T01:00:11.058Z,10.27
2018-09-11T01:02:39.532Z,10.23
2018-09-11T01:05:08.175Z,10.20
2018-09-11T01:07:36.769Z,10.27
2018-09-11T01:10:07.390Z,9.70
2018-09-11T01:12:36.135Z,11.27
2018-09-11T01:15:04.840Z,10.00
2018-09-11T01:17:33.555Z,10.47
2018-09-11T01:20:02.246Z,10.10
2018-09-11T01:22:30.886Z,10.40
2018-09-11T01:25:00.624Z,10.03
2018-09-11T01:27:29.068Z,10.70
2018-09-11T01:29:58.299Z,10.03
2018-09-11T01:32:26.849Z,9.83
2018-09-11T01:34:55.309Z,10.00
2018-09-11T01:37:23.818Z,9.83
2018-09-11T01:39:52.311Z,9.70
2018-09-11T01:42:20.812Z,10.00
2018-09-11T01:44:49.319Z,9.20
2018-09-11T01:47:17.786Z,9.60
2018-09-11T01:49:46.199Z,9.80
2018-09-11T01:52:14.662Z,10.30
2018-09-11T01:54:43.153Z,9.13
2018-09-11T01:57:11.629Z,8.70
2018-09-11T01:59:40.233Z,9.43
2018-09-11T02:02:09.071Z,8.70
2018-09-11T02:04:37.667Z,9.00
2018-09-11T02:07:06.214Z,8.30
2018-09-11T02:09:34.731Z,9.83
2018-09-11T02:12:03.250Z,8.53
2018-09-11T02:14:31.756Z,9.53
2018-09-11T02:17:00.308Z,8.47
2018-09-11T02:19:28.747Z,9.23
2018-09-11T02:21:57.198Z,8.47
2018-09-11T02:24:25.673Z,8.90
2018-09-11T02:26:54.200Z,7.97
2018-09-11T02:29:23.090Z,8.50
2018-09-11T02:31:51.679Z,8.87
2018-09-11T02:34:20.161Z,8.80
2018-09-11T02:36:48.713Z,9.07
2018-09-11T02:39:17.208Z,8.27
2018-09-11T02:41:46.211Z,8.27
2018-09-11T02:44:14.707Z,7.97
2018-09-11T02:46:43.355Z,8.57
2018-09-11T02:49:11.822Z,8.37
2018-09-11T02:51:40.325Z,8.57
2018-09-11T02:54:08.884Z,8.37
2018-09-11T02:56:37.434Z,8.67
2018-09-11T02:59:05.930Z,9.23
2018-09-11T03:01:34.449Z,8.80
2018-09-11T03:04:02.944Z,8.90
2018-09-11T03:06:31.421Z,9.40
2018-09-11T03:08:59.858Z,8.13
2018-09-11T03:11:28.335Z,8.83
2018-09-11T03:13:56.921Z,8.97
2018-09-11T03:16:25.458Z,9.80
2018-09-11T03:18:54.001Z,9.30
2018-09-11T03:21:22.491Z,9.00
2018-09-11T03:23:51.047Z,8.60
2018-09-11T03:26:19.669Z,8.90
2018-09-11T03:28:48.202Z,11.40
2018-09-11T03:31:16.628Z,9.23
2018-09-11T03:33:45.176Z,9.00
2018-09-11T03:36:13.698Z,10.73
2018-09-11T03:38:42.142Z,8.67
2018-09-11T03:41:10.643Z,9.17
2018-09-11T03:43:39.226Z,8.67
2018-09-11T03:46:07.683Z,9.10
2018-09-11T03:48:36.119Z,9.03
2018-09-11T03:51:05.193Z,8.93
2018-09-11T03:53:33.728Z,8.83
2018-09-11T03:56:02.318Z,9.30
2018-09-11T03:58:30.899Z,8.60
2018-09-11T04:00:59.421Z,9.60
2018-09-11T04:03:27.875Z,9.20
2018-09-11T04:05:56.633Z,9.43
2018-09-11T04:08:25.185Z,9.13
2018-09-11T04:10:53.651Z,9.10
2018-09-11T04:13:22.061Z,8.93
2018-09-11T04:15:50.565Z,8.40
2018-09-11T04:18:19.021Z,9.17
2018-09-11T04:20:49.146Z,9.07
2018-09-11T04:23:17.574Z,9.17
2018-09-11T04:25:46.090Z,9.10
2018-09-11T04:28:14.579Z,9.47
2018-09-11T04:30:43.139Z,9.03
2018-09-11T04:33:11.609Z,17.07
2018-09-11T04:35:40.021Z,18.93
2018-09-11T04:38:08.640Z,9.00
2018-09-11T04:40:37.170Z,10.23
2018-09-11T04:43:05.726Z,8.87
2018-09-11T04:45:34.324Z,11.73
2018-09-11T04:48:02.907Z,9.67
2018-09-11T04:50:31.403Z,9.17
2018-09-11T04:52:59.907Z,9.70
2018-09-11T04:55:28.347Z,8.60
2018-09-11T04:57:56.805Z,8.80
2018-09-11T05:00:25.313Z,15.17
2018-09-11T05:02:53.840Z,9.70
2018-09-11T05:05:22.277Z,8.93
2018-09-11T05:07:50.792Z,8.53
2018-09-11T05:10:19.345Z,9.80
2018-09-11T05:12:47.811Z,8.73
2018-09-11T05:15:16.629Z,8.63
2018-09-11T05:17:45.092Z,7.83
2018-09-11T05:20:13.718Z,9.20
2018-09-11T05:22:42.355Z,9.03
2018-09-11T05:25:10.968Z,8.13
2018-09-11T05:27:39.382Z,8.63
2018-09-11T05:30:08.680Z,8.07
2018-09-11T05:32:37.193Z,8.23
2018-09-11T05:35:05.690Z,8.00
2018-09-11T05:37:34.190Z,8.20
2018-09-11T05:40:02.598Z,8.07
2018-09-11T05:42:31.357Z,7.70
2018-09-11T05:45:00.387Z,8.30
2018-09-11T05:47:28.860Z,8.40
2018-09-11T05:49:57.328Z,8.27
2018-09-11T05:52:25.781Z,8.80
2018-09-11T05:54:54.318Z,8.00
2018-09-11T05:57:22.854Z,8.37
2018-09-11T05:59:51.335Z,8.60
2018-09-11T06:02:20.109Z,8.53
2018-09-11T06:04:48.810Z,7.80
2018-09-11T06:07:17.426Z,8.73
2018-09-11T06:09:45.946Z,8.17
2018-09-11T06:12:14.479Z,7.60
2018-09-11T06:14:43.812Z,7.63
2018-09-11T06:17:12.306Z,8.80
2018-09-11T06:19:40.842Z,7.70
2018-09-11T06:22:09.350Z,7.97
2018-09-11T06:24:37.815Z,8.17
2018-09-11T06:27:06.385Z,7.20
2018-09-11T06:29:34.930Z,6.90
2018-09-11T06:32:03.370Z,7.63
2018-09-11T06:34:31.848Z,6.53
2018-09-11T06:37:00.348Z,6.80
2018-09-11T06:39:28.857Z,6.80
2018-09-11T06:41:57.367Z,7.70
2018-09-11T06:44:25.834Z,6.43
2018-09-11T06:46:54.459Z,7.37
2018-09-11T06:49:23.064Z,8.27
2018-09-11T06:51:51.619Z,7.07
2018-09-11T06:54:26.659Z,6.30
2018-09-11T06:56:56.867Z,7.00
2018-09-11T06:59:25.449Z,7.10
2018-09-11T07:01:54.059Z,6.23
2018-09-11T07:04:23.644Z,6.00
2018-09-11T07:06:52.156Z,6.77
2018-09-11T07:09:20.640Z,6.47
2018-09-11T07:11:49.314Z,5.90
2018-09-11T07:14:17.787Z,5.83
2018-09-11T07:16:46.561Z,5.77
2018-09-11T07:19:15.209Z,6.17
2018-09-11T07:21:45.095Z,6.23
2018-09-11T07:24:13.585Z,5.80
2018-09-11T07:26:42.175Z,6.03
2018-09-11T07:29:10.621Z,5.67
2018-09-11T07:31:39.169Z,5.17
2018-09-11T07:34:07.679Z,5.97
2018-09-11T07:36:36.166Z,5.70
2018-09-11T07:39:06.100Z,5.43
2018-09-11T07:41:34.764Z,6.20
2018-09-11T07:44:03.317Z,6.27
2018-09-11T07:46:31.860Z,6.20
2018-09-11T07:49:00.311Z,5.83
2018-09-11T07:51:28.758Z,6.00
2018-09-11T07:53:57.148Z,5.93
2018-09-11T07:56:25.608Z,6.60
2018-09-11T07:58:54.181Z,6.90
2018-09-11T08:01:22.676Z,6.27
2018-09-11T08:03:51.374Z,6.90
2018-09-11T08:06:19.891Z,5.87
2018-09-11T08:08:48.435Z,5.97
2018-09-11T08:11:16.976Z,5.73
2018-09-11T08:13:45.464Z,6.13
2018-09-11T08:16:14.054Z,5.97
2018-09-11T08:18:42.643Z,6.27
2018-09-11T08:21:11.096Z,6.30
2018-09-11T08:23:39.654Z,6.37
2018-09-11T08:26:08.136Z,6.73
2018-09-11T08:28:36.742Z,6.43
2018-09-11T08:31:05.504Z,6.60
2018-09-11T08:33:33.984Z,6.00
2018-09-11T08:36:02.566Z,5.47
2018-09-11T08:38:31.060Z,5.57
2018-09-11T08:40:59.866Z,6.07
2018-09-11T08:43:28.907Z,6.47
2018-09-11T08:45:57.359Z,5.77
2018-09-11T08:48:25.754Z,6.07
2018-09-11T08:50:54.203Z,5.70
2018-09-11T08:53:22.602Z,5.90
2018-09-11T08:55:51.097Z,6.07
2018-09-11T08:58:19.595Z,6.10
2018-09-11T09:00:48.120Z,5.53
2018-09-11T09:03:16.692Z,5.30
2018-09-11T09:05:45.335Z,5.50
2018-09-11T09:08:13.819Z,6.13
2018-09-11T09:10:42.284Z,5.63
2018-09-11T09:13:10.765Z,5.53
2018-09-11T09:15:39.280Z,5.50
2018-09-11T09:18:07.792Z,5.13
2018-09-11T09:20:36.371Z,5.73
2018-09-11T09:23:04.905Z,5.43
2018-09-11T09:25:33.389Z,5.47
2018-09-11T09:28:01.886Z,5.13
2018-09-11T09:30:30.390Z,5.17
2018-09-11T09:32:58.919Z,5.57
2018-09-11T09:35:27.401Z,4.80
2018-09-11T09:37:55.888Z,4.80
2018-09-11T09:40:24.492Z,5.23
2018-09-11T09:42:53.228Z,5.13
2018-09-11T09:45:21.791Z,4.73
2018-09-11T09:47:50.322Z,4.60
2018-09-11T09:50:18.829Z,4.80
2018-09-11T09:52:47.347Z,4.60
2018-09-11T09:55:15.822Z,4.43
2018-09-11T09:57:44.274Z,5.53
2018-09-11T10:00:15.422Z,4.90
2018-09-11T10:02:43.924Z,5.33
2018-09-11T10:05:12.494Z,4.93
2018-09-11T10:07:40.959Z,5.23
2018-09-11T10:10:09.437Z,4.80
2018-09-11T10:12:37.957Z,4.83
2018-09-11T10:15:06.487Z,4.60
2018-09-11T10:17:34.975Z,4.57
2018-09-11T10:20:03.503Z,4.20
2018-09-11T10:22:31.992Z,4.30
2018-09-11T10:25:00.553Z,3.93
2018-09-11T10:27:29.162Z,4.17
2018-09-11T10:29:57.760Z,4.10
2018-09-11T10:32:26.275Z,4.50
2018-09-11T10:34:54.732Z,4.00
2018-09-11T10:37:23.213Z,15.07
2018-09-11T10:39:51.686Z,11.57
2018-09-11T10:42:20.176Z,4.37
2018-09-11T10:44:48.743Z,5.03
2018-09-11T10:47:17.191Z,4.47
2018-09-11T10:49:45.670Z,4.57
2018-09-11T10:52:14.137Z,5.17
2018-09-11T10:54:42.613Z,4.10
2018-09-11T10:57:11.127Z,6.13
2018-09-11T10:59:39.696Z,3.90
2018-09-11T11:02:08.191Z,4.43
2018-09-11T11:04:36.865Z,4.07
2018-09-11T11:07:05.634Z,3.97
2018-09-11T11:09:34.355Z,4.50
2018-09-11T11:12:02.871Z,4.20
2018-09-11T11:14:31.361Z,4.53
2018-09-11T11:17:00.065Z,3.97
2018-09-11T11:19:28.542Z,4.57
2018-09-11T11:21:57.018Z,4.60
2018-09-11T11:24:25.497Z,5.00
2018-09-11T11:26:53.994Z,4.83
2018-09-11T11:29:22.532Z,3.93
2018-09-11T11:31:51.062Z,3.77
2018-09-11T11:34:19.492Z,4.40
2018-09-11T11:36:48.100Z,4.67
2018-09-11T11:39:16.689Z,4.43
2018-09-11T11:41:45.450Z,3.97
2018-09-11T11:44:14.038Z,3.97
2018-09-11T11:46:42.703Z,4.17
2018-09-11T11:49:11.256Z,4.27
2018-09-11T11:51:39.747Z,4.10
2018-09-11T11:54:08.195Z,4.10
2018-09-11T11:56:36.689Z,4.20
2018-09-11T11:59:05.200Z,4.17
2018-09-11T12:01:33.706Z,3.87
2018-09-11T12:04:02.280Z,3.70
2018-09-11T12:06:30.828Z,4.00
2018-09-11T12:08:59.515Z,4.43
2018-09-11T12:11:28.097Z,3.83
2018-09-11T12:13:56.575Z,3.90
2018-09-11T12:16:25.017Z,3.90
2018-09-11T12:18:53.486Z,3.73
2018-09-11T12:21:21.982Z,4.03
2018-09-11T12:23:50.584Z,4.33
2018-09-11T12:26:19.263Z,4.33
2018-09-11T12:28:47.812Z,3.83
2018-09-11T12:31:16.399Z,3.97
2018-09-11T12:33:44.885Z,4.27
2018-09-11T12:36:13.403Z,4.10
2018-09-11T12:38:41.890Z,3.77
2018-09-11T12:41:10.448Z,4.27
2018-09-11T12:43:38.933Z,4.07
2018-09-11T12:46:07.719Z,4.40
2018-09-11T12:48:36.120Z,4.10
2018-09-11T12:51:04.508Z,4.33
2018-09-11T12:53:33.056Z,5.00
2018-09-11T12:56:01.588Z,4.80
2018-09-11T12:58:30.056Z,4.50
2018-09-11T13:00:58.600Z,4.50
2018-09-11T13:03:27.096Z,4.63
2018-09-11T13:05:55.615Z,4.60
2018-09-11T13:08:24.098Z,4.47
2018-09-11T13:10:52.786Z,4.80
2018-09-11T13:13:21.455Z,4.43
2018-09-11T13:15:49.978Z,4.97
2018-09-11T13:18:18.443Z,4.30
2018-09-11T13:20:46.945Z,4.60
2018-09-11T13:23:15.454Z,4.37
2018-09-11T13:25:43.901Z,4.03
2018-09-11T13:28:12.404Z,4.37
2018-09-11T13:30:40.834Z,4.50
2018-09-11T13:33:09.313Z,4.67
2018-09-11T13:35:37.805Z,4.60
2018-09-11T13:38:06.284Z,4.80
2018-09-11T13:40:34.778Z,4.90
2018-09-11T13:43:03.320Z,4.63
2018-09-11T13:45:31.902Z,5.00
2018-09-11T13:48:00.549Z,4.67
2018-09-11T13:50:29.136Z,5.20
2018-09-11T13:52:57.653Z,5.13
2018-09-11T13:55:26.050Z,5.23
2018-09-11T13:57:54.483Z,4.87
2018-09-11T14:00:22.959Z,5.17
2018-09-11T14:02:51.455Z,4.20
2018-09-11T14:05:19.937Z,5.97
2018-09-11T14:07:48.496Z,4.63
2018-09-11T14:10:17.009Z,4.83
2018-09-11T14:12:45.534Z,4.90
2018-09-11T14:15:14.050Z,4.63
2018-09-11T14:17:42.566Z,4.47
2018-09-11T14:20:11.097Z,4.33
2018-09-11T14:22:39.633Z,4.70
2018-09-11T14:25:08.377Z,4.73
2018-09-11T14:27:37.410Z,4.50
2018-09-11T14:30:05.928Z,4.33
2018-09-11T14:32:34.623Z,4.10
2018-09-11T14:35:03.166Z,10.13
2018-09-11T14:37:31.661Z,4.57
2018-09-11T14:40:00.093Z,4.50
2018-09-11T14:42:28.625Z,4.37
2018-09-11T14:44:57.294Z,4.80
2018-09-11T14:47:30.032Z,4.47
2018-09-11T14:49:58.545Z,4.33
2018-09-11T14:52:27.160Z,4.30
2018-09-11T14:54:55.683Z,4.37
2018-09-11T14:57:24.172Z,4.37
2018-09-11T14:59:52.765Z,4.57
2018-09-11T15:02:21.300Z,4.67
2018-09-11T15:04:49.779Z,4.40
2018-09-11T15:07:18.386Z,4.30
2018-09-11T15:09:46.918Z,4.90
2018-09-11T15:12:15.472Z,4.50
2018-09-11T15:14:44.225Z,4.80
2018-09-11T15:17:12.943Z,4.33
2018-09-11T15:19:41.555Z,4.40
2018-09-11T15:22:10.048Z,4.13
2018-09-11T15:24:39.517Z,4.53
2018-09-11T15:27:08.105Z,4.57
2018-09-11T15:29:36.598Z,4.60
2018-09-11T15:32:05.437Z,4.37
2018-09-11T15:34:34.071Z,4.80
2018-09-11T15:37:02.654Z,4.53
2018-09-11T15:39:31.149Z,4.17
2018-09-11T15:41:59.661Z,4.37
2018-09-11T15:44:28.919Z,4.57
2018-09-11T15:46:58.171Z,10.03
2018-09-11T15:49:27.004Z,6.33
2018-09-11T15:51:55.545Z,4.83
2018-09-11T15:54:24.081Z,4.03
2018-09-11T15:56:52.756Z,4.60
2018-09-11T15:59:21.374Z,4.73
2018-09-11T16:01:50.331Z,4.20
2018-09-11T16:04:18.792Z,4.20
2018-09-11T16:06:47.264Z,4.20
2018-09-11T16:09:15.890Z,4.13
2018-09-11T16:11:44.441Z,4.53
2018-09-11T16:14:12.961Z,4.97
2018-09-11T16:16:41.524Z,4.20
2018-09-11T16:19:10.111Z,4.30
2018-09-11T16:21:38.637Z,4.73
2018-09-11T16:24:07.370Z,4.03
2018-09-11T16:26:36.266Z,3.80
2018-09-11T16:29:04.855Z,4.20
2018-09-11T16:31:33.439Z,4.23
2018-09-11T16:34:02.101Z,3.50
2018-09-11T16:36:30.645Z,4.10
2018-09-11T16:39:00.694Z,3.73
2018-09-11T16:41:29.374Z,4.87
2018-09-11T16:43:57.948Z,4.90
2018-09-11T16:46:26.508Z,4.43
2018-09-11T16:48:55.181Z,4.33
2018-09-11T16:51:24.401Z,4.27
2018-09-11T16:53:53.131Z,4.30
2018-09-11T16:56:21.795Z,5.30
2018-09-11T16:58:51.288Z,4.40
2018-09-11T17:01:20.813Z,5.47
2018-09-11T17:03:49.320Z,5.53
2018-09-11T17:06:17.818Z,5.33
2018-09-11T17:08:46.471Z,4.40
2018-09-11T17:11:15.263Z,5.00
2018-09-11T17:13:43.921Z,4.60
2018-09-11T17:16:12.376Z,5.27
2018-09-11T17:18:40.856Z,5.80
2018-09-11T17:21:09.444Z,5.40
2018-09-11T17:23:38.012Z,4.93
2018-09-11T17:26:06.888Z,5.00
2018-09-11T17:28:35.485Z,4.60
2018-09-11T17:31:04.163Z,5.57
2018-09-11T17:33:32.820Z,5.30
2018-09-11T17:36:01.988Z,5.77
2018-09-11T17:38:30.750Z,6.10
2018-09-11T17:40:59.334Z,6.33
2018-09-11T17:43:28.039Z,6.97
2018-09-11T17:45:56.721Z,7.73
2018-09-11T17:48:25.472Z,7.97
2018-09-11T17:50:54.817Z,6.57
2018-09-11T17:53:23.588Z,7.07
2018-09-11T17:55:52.428Z,7.33
2018-09-11T17:58:21.170Z,7.53
2018-09-11T18:00:49.958Z,7.73
2018-09-11T18:03:18.800Z,7.27
2018-09-11T18:05:48.105Z,7.70
2018-09-11T18:08:16.892Z,8.07
2018-09-11T18:10:45.593Z,8.40
2018-09-11T18:13:14.432Z,10.20
2018-09-11T18:15:43.312Z,8.90
2018-09-11T18:18:12.800Z,9.73
2018-09-11T18:20:41.596Z,9.17
2018-09-11T18:23:10.582Z,7.43
2018-09-11T18:25:39.403Z,9.17
2018-09-11T18:28:08.410Z,8.97
2018-09-11T18:30:37.054Z,24.03
2018-09-11T18:33:06.078Z,10.93
2018-09-11T18:35:35.691Z,8.63
2018-09-11T18:38:04.844Z,8.77
2018-09-11T18:40:33.771Z,8.40
2018-09-11T18:43:02.526Z,8.00
2018-09-11T18:45:31.475Z,8.37
2018-09-11T18:48:00.154Z,7.50
2018-09-11T18:50:28.982Z,10.67
2018-09-11T18:52:59.180Z,10.03
2018-09-11T18:55:28.610Z,8.20
2018-09-11T18:57:57.460Z,9.20
2018-09-11T19:00:30.360Z,7.70
2018-09-11T19:03:01.807Z,7.53
2018-09-11T19:05:31.957Z,8.17
2018-09-11T19:08:01.215Z,9.03
2018-09-11T19:10:30.797Z,8.17
2018-09-11T19:12:59.906Z,7.90
2018-09-11T19:15:28.741Z,8.70
2018-09-11T19:17:57.435Z,7.63
2018-09-11T19:20:26.093Z,8.03
2018-09-11T19:22:57.648Z,7.83
2018-09-11T19:25:26.576Z,8.23
2018-09-11T19:27:55.325Z,8.77
2018-09-11T19:30:24.199Z,8.70
2018-09-11T19:32:53.128Z,7.87
2018-09-11T19:35:21.724Z,8.27
2018-09-11T19:37:50.563Z,8.70
2018-09-11T19:40:19.475Z,7.90
2018-09-11T19:42:48.220Z,9.10
2018-09-11T19:45:17.246Z,8.43
2018-09-11T19:47:46.306Z,8.73
2018-09-11T19:50:15.297Z,7.77
2018-09-11T19:52:43.969Z,8.30
2018-09-11T19:55:12.771Z,8.23
2018-09-11T19:57:42.010Z,8.43
2018-09-11T20:00:11.149Z,8.47
2018-09-11T20:02:39.808Z,8.93
2018-09-11T20:05:08.546Z,8.50
2018-09-11T20:07:37.455Z,8.27
2018-09-11T20:10:06.647Z,7.73
2018-09-11T20:12:36.375Z,8.03
2018-09-11T20:15:05.681Z,9.10
2018-09-11T20:17:34.596Z,9.03
2018-09-11T20:20:04.265Z,9.13
2018-09-11T20:22:33.000Z,9.10
2018-09-11T20:25:01.612Z,7.90
2018-09-11T20:27:30.239Z,8.47
2018-09-11T20:29:58.810Z,8.97
2018-09-11T20:32:27.588Z,8.90
2018-09-11T20:34:56.196Z,9.93
2018-09-11T20:37:24.797Z,8.73
2018-09-11T20:39:53.280Z,8.60
2018-09-11T20:42:21.886Z,8.70
2018-09-11T20:44:50.375Z,8.70
2018-09-11T20:47:18.887Z,8.83
2018-09-11T20:49:47.446Z,9.83
2018-09-11T20:52:15.972Z,9.63
2018-09-11T20:54:44.574Z,9.13
2018-09-11T20:57:13.154Z,9.73
2018-09-11T20:59:41.806Z,9.60
2018-09-11T21:02:10.357Z,9.60
2018-09-11T21:04:38.892Z,10.20
2018-09-11T21:07:07.637Z,10.07
2018-09-11T21:09:36.129Z,10.00
2018-09-11T21:12:04.613Z,9.33
2018-09-11T21:14:33.092Z,9.27
2018-09-11T21:17:01.708Z,9.77
2018-09-11T21:19:30.179Z,9.40
2018-09-11T21:21:58.708Z,9.83
2018-09-11T21:24:27.183Z,9.33
2018-09-11T21:26:55.665Z,9.03
2018-09-11T21:29:24.162Z,9.13
2018-09-11T21:31:52.667Z,8.77
2018-09-11T21:34:21.207Z,9.20
2018-09-11T21:36:49.791Z,9.17
2018-09-11T21:39:18.357Z,9.37
2018-09-11T21:41:46.912Z,9.33
2018-09-11T21:44:16.018Z,9.90
2018-09-11T21:46:44.501Z,9.07
2018-09-11T21:49:12.957Z,8.80
2018-09-11T21:51:41.697Z,9.33
2018-09-11T21:54:10.178Z,9.20
2018-09-11T21:56:38.664Z,8.63
2018-09-11T21:59:07.275Z,9.37
2018-09-11T22:01:41.081Z,8.97
2018-09-11T22:04:09.599Z,9.40
2018-09-11T22:06:38.087Z,9.90
2018-09-11T22:09:08.709Z,9.43
2018-09-11T22:11:37.421Z,9.50
2018-09-11T22:14:06.103Z,8.30
2018-09-11T22:16:34.853Z,9.27
2018-09-11T22:19:03.372Z,8.37
2018-09-11T22:21:32.316Z,9.00
2018-09-11T22:24:00.977Z,9.73
2018-09-11T22:26:29.422Z,9.57
2018-09-11T22:28:57.925Z,9.43
2018-09-11T22:31:26.460Z,10.43
2018-09-11T22:33:55.203Z,10.27
2018-09-11T22:36:24.088Z,10.27
2018-09-11T22:38:52.716Z,10.27
2018-09-11T22:41:21.264Z,10.43
2018-09-11T22:43:49.966Z,9.60
2018-09-11T22:46:18.709Z,10.53
2018-09-11T22:48:47.176Z,9.90
2018-09-11T22:51:15.767Z,9.60
2018-09-11T22:53:44.213Z,10.47
2018-09-11T22:56:12.700Z,9.70
2018-09-11T22:58:41.200Z,10.97
2018-09-11T23:01:09.673Z,10.53
2018-09-11T23:03:38.138Z,10.47
2018-09-11T23:06:06.618Z,11.17
2018-09-11T23:08:35.209Z,11.03
2018-09-11T23:11:03.743Z,10.20
2018-09-11T23:13:32.251Z,10.80
2018-09-11T23:16:00.938Z,11.27
2018-09-11T23:18:29.410Z,10.63
2018-09-11T23:20:57.866Z,11.07
2018-09-11T23:23:27.395Z,10.67
2018-09-11T23:25:56.043Z,11.07
2018-09-11T23:28:24.556Z,11.47
2018-09-11T23:30:52.972Z,11.23
2018-09-11T23:33:21.491Z,11.53
2018-09-11T23:35:49.962Z,11.53
2018-09-11T23:38:18.453Z,11.90
2018-09-11T23:40:46.873Z,11.27
2018-09-11T23:43:15.381Z,11.27
2018-09-11T23:45:43.824Z,11.13
2018-09-11T23:48:12.262Z,11.67
2018-09-11T23:50:40.787Z,11.67
2018-09-11T23:53:09.296Z,12.23
2018-09-11T23:55:37.897Z,11.47
2018-09-11T23:58:06.422Z,12.63
